Time;durP1;ratioP1;P1;durP2;ratioP2;P2;SDS_P1;SDS_P2;PMS_P1;PMS_P2;Temp;Humidity;BMP_temperature;BMP_pressure;BME280_temperature;BME280_humidity;BME280_pressure;Samples;Min_cycle;Max_cycle;Signal;HPM_P1;HPM_P2
2021/03/26 00:01:34;;;;;;;122.17;59.93;;;;;;;5.40;68.59;100748.00;115379;1202;24782;-58
2021/03/26 00:04:06;;;;;;;122.50;63.57;;;;;;;5.39;68.51;100756.75;115138;1202;27345;-57
2021/03/26 00:06:38;;;;;;;123.95;61.85;;;;;;;5.36;68.65;100757.63;114904;1202;23135;-56
2021/03/26 00:09:09;;;;;;;115.55;57.15;;;;;;;5.35;68.60;100756.84;114905;1199;23105;-56
2021/03/26 00:11:38;;;;;;;119.37;61.03;;;;;;;5.34;68.76;100748.98;115150;1201;25981;-56
2021/03/26 00:14:07;;;;;;;125.77;62.40;;;;;;;5.31;68.96;100755.36;114965;1199;23115;-54
2021/03/26 00:16:36;;;;;;;123.23;62.07;;;;;;;5.27;68.87;100744.38;114973;1202;23273;-57
2021/03/26 00:19:05;;;;;;;121.43;61.87;;;;;;;5.26;68.92;100755.86;115041;1200;26045;-53
2021/03/26 00:21:35;;;;;;;124.37;63.20;;;;;;;5.24;69.03;100749.97;115348;1202;23125;-57
2021/03/26 00:24:07;;;;;;;124.95;63.60;;;;;;;5.23;69.00;100751.98;115105;1202;23248;-55
2021/03/26 00:26:36;;;;;;;125.85;63.45;;;;;;;5.21;68.94;100750.84;115023;1202;24596;-57
2021/03/26 00:29:11;;;;;;;123.80;64.30;;;;;;;5.18;69.02;100749.72;115029;1202;23116;-57
2021/03/26 00:31:41;;;;;;;122.95;61.80;;;;;;;5.16;68.88;100754.11;114978;1200;23139;-56
2021/03/26 00:34:11;;;;;;;124.87;61.33;;;;;;;5.14;68.92;100753.77;115282;1200;27211;-54
2021/03/26 00:36:40;;;;;;;129.70;63.10;;;;;;;5.13;69.20;100749.45;114880;1200;23115;-54
2021/03/26 00:39:09;;;;;;;123.93;61.47;;;;;;;5.11;69.05;100743.58;114978;1200;23190;-56
2021/03/26 00:41:38;;;;;;;128.50;62.80;;;;;;;5.08;68.95;100750.73;115135;1203;23111;-56
2021/03/26 00:44:07;;;;;;;125.20;63.25;;;;;;;5.07;69.06;100754.70;115017;1202;27252;-55
2021/03/26 00:46:39;;;;;;;124.03;63.67;;;;;;;5.05;68.97;100750.83;114999;1202;23263;-57
2021/03/26 00:49:08;;;;;;;129.25;61.85;;;;;;;5.02;68.98;100752.45;114525;1200;23120;-57
2021/03/26 00:51:38;;;;;;;127.35;63.25;;;;;;;5.00;69.17;100745.78;114951;1202;23252;-56
2021/03/26 00:54:08;;;;;;;126.35;63.30;;;;;;;4.97;69.28;100744.65;114904;1200;23139;-56
2021/03/26 00:56:36;;;;;;;123.25;62.75;;;;;;;4.96;69.29;100751.41;115288;1202;23144;-56
2021/03/26 00:59:05;;;;;;;123.30;63.40;;;;;;;4.93;69.19;100743.95;115076;1203;23105;-56
2021/03/26 01:01:34;;;;;;;130.95;64.70;;;;;;;4.90;69.41;100742.81;114916;1199;23286;-56
2021/03/26 01:04:03;;;;;;;120.10;61.20;;;;;;;4.89;69.27;100743.25;114964;1202;26093;-56
2021/03/26 01:06:32;;;;;;;119.27;60.07;;;;;;;4.86;69.18;100744.13;115078;1202;26114;-54
2021/03/26 01:09:01;;;;;;;127.20;62.73;;;;;;;4.82;69.46;100743.42;114691;1200;23392;-58
2021/03/26 01:11:33;;;;;;;120.20;60.55;;;;;;;4.80;69.34;100748.60;114845;1202;23169;-54
2021/03/26 01:14:03;;;;;;;122.03;60.23;;;;;;;4.76;69.19;100748.66;115069;1202;23109;-56
2021/03/26 01:16:32;;;;;;;127.30;63.10;;;;;;;4.73;69.43;100752.29;115118;1200;23115;-57
2021/03/26 01:19:01;;;;;;;129.03;60.63;;;;;;;4.70;69.44;100744.83;115040;1200;23108;-53
2021/03/26 01:21:32;;;;;;;121.70;62.20;;;;;;;4.70;69.38;100752.34;114998;1202;23102;-54
2021/03/26 01:24:04;;;;;;;121.50;60.70;;;;;;;4.68;69.44;100747.25;115026;1201;23118;-55
2021/03/26 01:26:33;;;;;;;127.10;61.70;;;;;;;4.64;69.45;100748.52;115287;1200;23121;-55
2021/03/26 01:29:02;;;;;;;122.85;59.25;;;;;;;4.62;69.59;100746.19;115228;1200;23173;-55
2021/03/26 01:31:31;;;;;;;128.00;61.73;;;;;;;4.60;69.45;100747.81;115032;1199;23112;-56
2021/03/26 01:34:00;;;;;;;128.47;61.50;;;;;;;4.56;69.35;100752.64;115047;1202;23130;-56
2021/03/26 01:36:29;;;;;;;123.40;59.97;;;;;;;4.53;69.71;100743.20;115113;1202;23557;-56
2021/03/26 01:38:57;;;;;;;125.17;60.67;;;;;;;4.52;69.70;100738.89;114887;1202;23338;-57
2021/03/26 01:41:35;;;;;;;123.60;60.60;;;;;;;4.49;69.55;100736.97;114799;1202;23118;-55
2021/03/26 01:44:06;;;;;;;113.95;59.05;;;;;;;4.47;69.60;100739.38;115110;1203;24784;-55
2021/03/26 01:46:35;;;;;;;122.13;60.07;;;;;;;4.45;69.71;100747.31;114730;1202;23145;-53
2021/03/26 01:49:06;;;;;;;123.75;59.65;;;;;;;4.45;69.78;100743.80;114999;1200;27326;-56
2021/03/26 01:51:37;;;;;;;126.50;61.05;;;;;;;4.43;69.68;100744.20;115128;1202;23128;-53
2021/03/26 01:54:08;;;;;;;124.90;63.65;;;;;;;4.40;69.68;100731.24;115058;1200;23223;-54
2021/03/26 01:56:37;;;;;;;137.85;67.65;;;;;;;4.37;70.04;100745.11;115048;1202;23148;-56
2021/03/26 01:59:06;;;;;;;135.70;65.65;;;;;;;4.30;70.08;100751.58;115148;1202;23199;-56
2021/03/26 02:01:41;;;;;;;131.77;63.33;;;;;;;4.30;70.23;100742.50;114683;1202;23243;-55
2021/03/26 02:04:31;;;;;;;128.70;63.10;;;;;;;4.31;70.33;100738.52;115096;1202;23105;-54
2021/03/26 02:07:00;;;;;;;131.20;61.73;;;;;;;4.30;70.17;100734.22;114927;1202;23111;-55
2021/03/26 02:09:33;;;;;;;119.95;58.80;;;;;;;4.30;70.41;100735.00;114720;1199;24573;-53
2021/03/26 02:12:05;;;;;;;121.80;59.60;;;;;;;4.28;70.57;100734.65;115042;1202;23308;-54
2021/03/26 02:14:38;;;;;;;129.10;64.03;;;;;;;4.28;71.11;100726.36;115182;1202;28249;-56
2021/03/26 02:17:08;;;;;;;135.45;66.00;;;;;;;4.26;71.50;100737.05;115089;1203;23109;-55
2021/03/26 02:19:43;;;;;;;132.45;63.90;;;;;;;4.26;71.11;100730.73;115167;1200;23115;-54
2021/03/26 02:22:14;;;;;;;124.40;61.10;;;;;;;4.27;71.27;100732.28;114684;1202;23256;-56
2021/03/26 02:24:45;;;;;;;133.90;64.95;;;;;;;4.29;71.93;100738.17;115096;1202;24785;-56
2021/03/26 02:27:17;;;;;;;135.40;64.20;;;;;;;4.29;71.70;100738.17;115091;1202;23112;-55
2021/03/26 02:29:46;;;;;;;137.33;63.60;;;;;;;4.29;71.81;100736.19;115136;1202;27259;-56
2021/03/26 02:32:26;;;;;;;138.67;69.83;;;;;;;4.30;71.88;100739.74;114660;1202;23141;-54
2021/03/26 02:35:23;;;;;;;134.03;66.73;;;;;;;4.32;71.99;100745.63;114974;1202;26263;-54
2021/03/26 02:37:56;;;;;;;131.65;64.10;;;;;;;4.33;72.30;100742.42;114592;1203;23188;-56
2021/03/26 02:40:30;;;;;;;131.30;64.93;;;;;;;4.36;72.08;100746.34;114741;1205;23151;-56
2021/03/26 02:43:09;;;;;;;132.25;64.60;;;;;;;4.39;72.22;100742.70;114783;1205;23147;-54
2021/03/26 02:45:45;;;;;;;128.90;63.30;;;;;;;4.40;72.41;100747.05;114750;1205;23281;-54
2021/03/26 02:48:20;;;;;;;125.85;63.95;;;;;;;4.42;72.47;100744.63;114716;1203;23128;-56
2021/03/26 02:50:58;;;;;;;132.30;65.10;;;;;;;4.45;73.01;100746.56;114566;1203;23159;-54
2021/03/26 02:53:42;;;;;;;133.40;64.30;;;;;;;4.45;72.94;100741.03;114890;1203;23272;-56
2021/03/26 02:56:16;;;;;;;132.40;63.40;;;;;;;4.48;72.94;100745.69;114619;1203;23128;-53
2021/03/26 02:58:50;;;;;;;131.10;65.10;;;;;;;4.50;72.66;100757.11;114758;1206;23127;-56
2021/03/26 03:01:24;;;;;;;135.40;63.40;;;;;;;4.52;72.70;100752.72;114648;1206;23137;-56
2021/03/26 03:04:00;;;;;;;134.90;65.40;;;;;;;4.54;73.04;100755.05;114658;1205;23311;-55
2021/03/26 03:06:34;;;;;;;136.60;66.27;;;;;;;4.56;73.14;100758.17;114637;1205;23128;-56
2021/03/26 03:09:07;;;;;;;138.60;66.67;;;;;;;4.57;73.39;100756.98;114657;1205;23109;-56
2021/03/26 03:11:41;;;;;;;138.80;68.70;;;;;;;4.59;73.02;100757.33;114786;1205;23125;-56
2021/03/26 03:14:16;;;;;;;147.40;66.85;;;;;;;4.60;73.37;100765.20;114728;1203;23136;-53
2021/03/26 03:16:53;;;;;;;140.10;65.90;;;;;;;4.61;73.69;100757.69;115014;1200;24779;-57
2021/03/26 03:19:35;;;;;;;151.27;71.93;;;;;;;4.62;73.80;100757.25;115124;1199;27428;-54
2021/03/26 03:22:11;;;;;;;144.55;69.50;;;;;;;4.63;73.78;100761.59;115135;1202;26955;-56
2021/03/26 03:24:43;;;;;;;143.90;67.10;;;;;;;4.64;74.00;100770.64;114854;1199;23111;-55
2021/03/26 03:27:26;;;;;;;146.60;72.15;;;;;;;4.64;74.00;100767.88;114846;1202;23117;-56
2021/03/26 03:30:16;;;;;;;148.25;69.65;;;;;;;4.63;74.26;100775.42;115012;1202;23112;-55
2021/03/26 03:32:53;;;;;;;147.17;70.03;;;;;;;4.62;74.32;100778.59;115325;1200;23079;-56
2021/03/26 03:35:32;;;;;;;149.65;70.70;;;;;;;4.62;74.55;100775.82;115100;1202;23375;-56
2021/03/26 03:38:10;;;;;;;137.40;68.20;;;;;;;4.61;74.72;100783.36;115071;1202;23109;-55
2021/03/26 03:40:48;;;;;;;143.20;68.70;;;;;;;4.60;74.82;100773.48;118112;1202;23144;-55
2021/03/26 03:43:23;;;;;;;147.03;68.87;;;;;;;4.60;75.06;100776.25;115203;1202;23105;-57
2021/03/26 03:46:00;;;;;;;150.00;71.90;;;;;;;4.60;75.15;100781.78;115020;1200;23111;-55
2021/03/26 03:48:37;;;;;;;146.43;68.33;;;;;;;4.62;74.86;100775.82;115118;1202;24919;-54
2021/03/26 03:51:10;;;;;;;147.25;70.90;;;;;;;4.64;75.08;100778.94;115165;1202;23105;-56
2021/03/26 03:53:46;;;;;;;157.65;72.25;;;;;;;4.68;75.17;100774.12;115115;1199;23253;-54
2021/03/26 03:56:23;;;;;;;146.15;72.25;;;;;;;4.71;75.08;100778.81;114855;1202;23134;-56
2021/03/26 03:59:01;;;;;;;150.35;70.40;;;;;;;4.73;75.54;100765.33;114935;1202;23258;-55
2021/03/26 04:01:36;;;;;;;147.13;71.97;;;;;;;4.73;75.56;100757.82;114970;1199;24632;-62
2021/03/26 04:04:10;;;;;;;155.63;73.40;;;;;;;4.75;75.80;100760.94;115193;1199;24781;-53
2021/03/26 04:06:46;;;;;;;153.20;75.20;;;;;;;4.77;75.71;100755.77;115062;1198;26246;-54
2021/03/26 04:09:19;;;;;;;148.87;74.27;;;;;;;4.78;75.62;100751.77;115147;1202;23120;-55
2021/03/26 04:11:52;;;;;;;142.37;69.33;;;;;;;4.75;76.30;100758.17;115170;1202;23105;-53
2021/03/26 04:14:24;;;;;;;149.00;71.13;;;;;;;4.70;76.09;100758.66;115105;1202;23320;-56
2021/03/26 04:16:57;;;;;;;144.60;70.35;;;;;;;4.69;76.11;100757.12;114946;1202;23111;-53
2021/03/26 04:19:31;;;;;;;146.60;70.03;;;;;;;4.70;76.27;100758.66;115318;1202;27211;-54
2021/03/26 04:22:05;;;;;;;145.95;71.10;;;;;;;4.71;76.43;100762.22;115192;1202;23108;-57
2021/03/26 04:24:39;;;;;;;148.03;72.37;;;;;;;4.71;76.69;100765.77;114772;1202;23111;-55
2021/03/26 04:27:13;;;;;;;144.00;70.45;;;;;;;4.73;76.86;100779.16;115046;1202;23321;-55
2021/03/26 04:30:00;;;;;;;143.60;74.50;;;;;;;4.72;76.84;100781.14;115115;1200;26198;-56
2021/03/26 04:32:29;;;;;;;146.05;69.75;;;;;;;4.72;76.59;100770.08;115194;1203;23124;-57
2021/03/26 04:34:58;;;;;;;141.10;70.50;;;;;;;4.74;76.74;100761.34;114983;1200;23104;-54
2021/03/26 04:37:35;;;;;;;145.07;69.73;;;;;;;4.76;76.82;100765.25;115163;1202;23137;-55
2021/03/26 04:40:09;;;;;;;139.43;70.20;;;;;;;4.77;76.68;100764.06;114924;1202;23111;-56
2021/03/26 04:42:47;;;;;;;144.75;72.20;;;;;;;4.79;76.89;100764.41;114920;1202;23131;-57
2021/03/26 04:45:22;;;;;;;142.65;66.80;;;;;;;4.82;76.64;100762.78;115105;1202;26243;-53
2021/03/26 04:47:59;;;;;;;144.87;69.53;;;;;;;4.85;77.13;100773.77;115163;1201;23127;-56
2021/03/26 04:50:32;;;;;;;139.10;67.00;;;;;;;4.86;77.02;100778.08;114877;1202;23112;-56
2021/03/26 04:53:09;;;;;;;139.70;69.00;;;;;;;4.89;76.87;100774.47;115287;1202;23105;-56
2021/03/26 04:55:43;;;;;;;137.35;68.45;;;;;;;4.91;77.00;100769.28;114854;1202;27294;-55
2021/03/26 04:58:16;;;;;;;139.85;71.05;;;;;;;4.90;77.15;100770.48;115108;1201;23179;-57
2021/03/26 05:00:48;;;;;;;142.43;68.43;;;;;;;4.90;76.77;100764.19;115143;1199;23138;-56
2021/03/26 05:03:21;;;;;;;145.50;71.73;;;;;;;4.91;77.22;100765.73;115179;1200;23334;-55
2021/03/26 05:05:54;;;;;;;148.57;71.70;;;;;;;4.91;77.15;100765.73;115139;1199;23103;-56
2021/03/26 05:08:27;;;;;;;148.90;69.60;;;;;;;4.93;77.29;100766.88;114901;1202;28373;-57
2021/03/26 05:11:01;;;;;;;147.25;71.20;;;;;;;4.94;77.57;100759.36;115182;1203;23108;-56
2021/03/26 05:13:33;;;;;;;137.77;69.67;;;;;;;4.96;77.27;100762.47;115198;1202;23250;-56
2021/03/26 05:16:08;;;;;;;146.67;70.53;;;;;;;4.97;77.45;100772.31;115170;1200;23112;-54
2021/03/26 05:18:44;;;;;;;142.00;69.70;;;;;;;4.98;77.56;100770.34;114940;1200;23120;-56
2021/03/26 05:21:18;;;;;;;131.57;64.63;;;;;;;4.97;77.50;100768.77;114970;1202;26102;-56
2021/03/26 05:23:52;;;;;;;141.90;67.65;;;;;;;4.98;77.51;100764.80;115223;1202;23282;-56
2021/03/26 05:26:21;;;;;;;137.73;67.00;;;;;;;5.00;77.71;100770.69;115190;1202;23108;-53
2021/03/26 05:28:50;;;;;;;134.65;65.95;;;;;;;5.02;77.57;100776.58;115257;1202;23105;-56
2021/03/26 05:31:37;;;;;;;135.57;64.73;;;;;;;5.03;77.65;100778.15;114953;1202;23115;-56
2021/03/26 05:34:12;;;;;;;141.43;67.57;;;;;;;5.03;77.76;100767.08;115057;1202;23170;-56
2021/03/26 05:36:45;;;;;;;141.20;68.50;;;;;;;5.04;77.99;100777.71;115159;1202;23127;-55
2021/03/26 05:39:18;;;;;;;139.33;67.27;;;;;;;5.05;77.76;100775.73;115177;1202;26288;-55
2021/03/26 05:42:15;;;;;;;141.00;66.33;;;;;;;5.05;77.86;100770.95;115170;1200;23105;-54
2021/03/26 05:44:57;;;;;;;149.80;69.00;;;;;;;5.07;78.10;100776.84;114911;1202;24803;-56
2021/03/26 05:47:40;;;;;;;140.20;69.75;;;;;;;5.09;78.34;100779.95;114958;1200;23108;-56
2021/03/26 05:50:42;;;;;;;159.30;80.20;;;;;;;5.11;78.43;100776.78;114948;1202;23105;-57
2021/03/26 05:53:23;;;;;;;154.60;82.40;;;;;;;5.12;78.14;100779.11;114732;1202;24816;-56
2021/03/26 05:56:02;;;;;;;146.40;73.80;;;;;;;5.15;78.31;100778.27;114609;1205;23132;-57
2021/03/26 05:58:51;;;;;;;134.65;69.25;;;;;;;5.17;78.47;100772.30;114863;1203;26820;-56
2021/03/26 06:01:52;;;;;;;146.20;70.45;;;;;;;5.18;78.59;100777.39;114608;1202;23131;-56
2021/03/26 06:04:39;;;;;;;;;;;;;;;5.20;78.52;100774.97;114555;1210;24776;-54
2021/03/26 06:07:48;;;;;;;134.25;66.85;;;;;;;5.22;78.62;100769.78;114417;1206;21679;-56
2021/03/26 06:10:57;;;;;;;132.07;65.07;;;;;;;5.26;78.71;100787.09;114440;1206;24586;-55
2021/03/26 06:13:49;;;;;;;136.25;69.00;;;;;;;5.30;78.90;100775.94;114171;1209;24892;-56
2021/03/26 06:16:40;;;;;;;147.25;71.35;;;;;;;5.34;78.82;100787.73;114314;1209;23153;-65
2021/03/26 06:19:38;;;;;;;152.40;75.20;;;;;;;5.40;78.92;100786.77;114260;1206;23153;-59
2021/03/26 06:22:39;;;;;;;169.90;82.00;;;;;;;5.45;79.01;100793.78;114467;1209;28169;-58
2021/03/26 06:25:51;;;;;;;155.53;75.53;;;;;;;5.49;79.10;100792.50;114146;1209;23249;-57
2021/03/26 06:28:45;;;;;;;151.30;76.55;;;;;;;5.55;79.08;100801.06;114116;1209;26217;-56
2021/03/26 06:31:58;;;;;;;143.00;72.10;;;;;;;5.60;79.07;100797.80;114503;1206;26162;-54
2021/03/26 06:35:07;;;;;;;142.50;70.50;;;;;;;5.66;78.83;100796.84;115825;1209;23152;-54
2021/03/26 06:37:57;;;;;;;133.90;67.90;;;;;;;5.74;79.07;100808.53;114245;1211;27390;-56
2021/03/26 06:40:51;;;;;;;128.85;64.55;;;;;;;5.79;78.74;100801.70;114031;1209;27278;-62
2021/03/26 06:43:36;;;;;;;133.33;66.27;;;;;;;5.83;79.13;100799.61;113975;1209;23184;-56
2021/03/26 06:46:19;;;;;;;134.65;67.20;;;;;;;5.88;79.31;100785.25;113900;1209;23182;-55
2021/03/26 06:49:07;;;;;;;151.80;76.40;;;;;;;5.96;79.33;100790.19;113883;1209;23419;-56
2021/03/26 06:51:52;;;;;;;164.55;82.20;;;;;;;6.02;79.28;100788.45;114167;1206;23324;-58
2021/03/26 06:54:42;;;;;;;144.10;71.50;;;;;;;6.09;79.42;100790.27;113827;1208;23122;-55
2021/03/26 06:57:41;;;;;;;141.40;69.65;;;;;;;6.16;79.05;100787.32;114221;1206;24408;-57
2021/03/26 07:00:43;;;;;;;157.40;77.50;;;;;;;6.22;79.42;100786.36;114587;1203;23156;-55
2021/03/26 07:03:45;;;;;;;168.70;79.90;;;;;;;6.29;79.23;100790.94;114140;1208;28322;-56
2021/03/26 07:06:27;;;;;;;;;;;;;;;6.37;79.13;100795.08;114177;1206;24150;-57
2021/03/26 07:09:14;;;;;;;179.20;81.20;;;;;;;6.43;79.33;100796.86;113895;1206;23204;-55
2021/03/26 07:12:01;;;;;;;149.70;74.40;;;;;;;6.50;79.19;100802.23;114090;1208;23132;-56
2021/03/26 07:14:55;;;;;;;137.55;66.85;;;;;;;6.54;79.27;100805.68;114320;1205;26249;-57
2021/03/26 07:18:19;;;;;;;146.00;71.85;;;;;;;6.61;79.20;100801.94;114741;1205;23111;-54
2021/03/26 07:21:19;;;;;;;140.60;69.55;;;;;;;6.68;78.84;100814.84;114322;1203;23093;-56
2021/03/26 07:24:29;;;;;;;131.70;66.50;;;;;;;6.74;79.05;100804.76;114651;1206;23116;-57
2021/03/26 07:27:15;;;;;;;128.00;65.00;;;;;;;6.78;79.22;100809.00;114421;1206;23182;-57
2021/03/26 07:30:12;;;;;;;126.30;64.45;;;;;;;6.80;79.00;100806.56;114149;1206;24785;-55
2021/03/26 07:32:50;;;;;;;132.30;65.40;;;;;;;6.85;78.92;100813.57;115624;1206;23121;-55
2021/03/26 07:35:34;;;;;;;124.20;63.60;;;;;;;6.87;78.59;100803.56;114465;1206;26309;-57
2021/03/26 07:38:53;;;;;;;120.30;59.45;;;;;;;6.92;78.76;100808.59;114868;1206;26175;-58
2021/03/26 07:41:49;;;;;;;120.80;60.20;;;;;;;6.97;78.32;100812.82;114928;1206;24783;-58
2021/03/26 07:44:39;;;;;;;118.70;60.20;;;;;;;7.00;78.49;100807.16;114380;1206;23140;-57
2021/03/26 07:47:43;;;;;;;117.23;61.40;;;;;;;7.05;78.62;100809.40;114171;1206;23154;-56
2021/03/26 07:50:56;;;;;;;124.40;61.80;;;;;;;7.10;78.49;100811.61;114787;1206;26281;-58
2021/03/26 07:53:49;;;;;;;122.90;63.75;;;;;;;7.17;78.79;100805.08;114210;1208;25672;-57
2021/03/26 07:56:43;;;;;;;128.30;62.80;;;;;;;7.26;78.88;100807.98;114905;1206;23161;-56
2021/03/26 07:59:52;;;;;;;122.50;63.10;;;;;;;7.33;78.50;100808.54;114129;1208;23163;-56
2021/03/26 08:02:38;;;;;;;122.95;64.40;;;;;;;7.42;79.00;100807.88;114152;1209;23415;-55
2021/03/26 08:05:18;;;;;;;121.20;61.30;;;;;;;7.48;78.48;100811.66;114044;1206;23162;-58
2021/03/26 08:08:24;;;;;;;123.27;63.57;;;;;;;7.56;78.57;100806.65;114390;1205;23157;-58
2021/03/26 08:10:57;;;;;;;121.60;60.20;;;;;;;7.64;78.31;100807.98;116238;1209;23162;-58
2021/03/26 08:13:56;;;;;;;121.55;59.85;;;;;;;7.70;78.19;100806.98;115358;1205;28505;-55
2021/03/26 08:16:53;;;;;;;113.67;58.40;;;;;;;7.78;78.23;100810.33;114557;1206;23169;-57
2021/03/26 08:19:31;;;;;;;111.60;57.10;;;;;;;7.87;78.70;100811.20;115154;1203;23157;-56
2021/03/26 08:22:14;;;;;;;118.25;57.55;;;;;;;7.97;78.35;100817.63;115039;1203;23291;-56
2021/03/26 08:48:39;;;;;;;88.83;46.57;;;;;;;9.04;77.30;100812.70;115095;1199;23102;-57
2021/03/26 08:51:48;;;;;;;95.90;50.15;;;;;;;9.15;77.26;100810.27;115299;1198;23173;-58
2021/03/26 08:54:30;;;;;;;88.77;44.90;;;;;;;9.30;76.65;100806.50;115237;1200;25778;-56
2021/03/26 08:57:13;;;;;;;88.65;44.55;;;;;;;9.46;76.57;100811.84;115211;1202;23119;-57
2021/03/26 09:00:03;;;;;;;86.20;43.30;;;;;;;9.60;76.37;100796.58;115094;1200;23106;-57
2021/03/26 09:03:03;;;;;;;82.20;41.63;;;;;;;9.73;75.96;100809.16;115537;1200;23091;-59
2021/03/26 09:05:53;;;;;;;94.65;44.70;;;;;;;9.89;75.64;100810.14;114905;1203;23302;-57
2021/03/26 09:08:41;;;;;;;80.53;40.87;;;;;;;9.95;75.40;100811.09;115007;1203;23457;-55
2021/03/26 09:11:36;;;;;;;86.35;44.30;;;;;;;10.05;75.26;100807.08;115030;1206;25602;-55
2021/03/26 09:14:23;;;;;;;82.73;39.47;;;;;;;10.16;75.18;100801.88;114842;1202;23136;-57
2021/03/26 09:16:58;;;;;;;86.80;44.10;;;;;;;10.32;74.91;100802.36;114940;1202;26022;-58
2021/03/26 09:19:33;;;;;;;84.63;42.33;;;;;;;10.45;74.49;100816.14;114846;1205;23260;-58
2021/03/26 09:22:17;;;;;;;84.60;42.33;;;;;;;10.58;74.64;100808.40;114884;1203;23117;-57
2021/03/26 09:25:26;;;;;;;83.80;41.50;;;;;;;10.69;74.13;100810.73;114929;1203;23267;-57
2021/03/26 09:28:02;;;;;;;74.07;37.67;;;;;;;10.82;74.06;100808.55;114832;1203;28614;-58
2021/03/26 09:30:35;;;;;;;79.00;39.75;;;;;;;10.92;73.67;100802.49;114414;1203;27692;-58
2021/03/26 09:33:13;;;;;;;72.45;35.95;;;;;;;11.09;73.35;100800.89;117147;1203;23141;-58
2021/03/26 09:35:47;;;;;;;66.93;33.80;;;;;;;11.28;72.98;100804.41;114704;1203;23312;-57
2021/03/26 09:38:26;;;;;;;70.80;34.75;;;;;;;11.41;72.22;100799.41;114516;1209;23131;-58
2021/03/26 09:41:08;;;;;;;63.30;32.30;;;;;;;11.57;71.83;100801.83;114563;1203;25087;-56
2021/03/26 09:43:49;;;;;;;63.55;31.55;;;;;;;11.76;70.97;100794.94;116747;1203;23125;-59
2021/03/26 09:46:19;;;;;;;;;;;;;;;11.93;70.63;100786.92;115090;1207;23115;-57
2021/03/26 09:49:13;;;;;;;61.80;31.20;;;;;;;12.01;70.26;100791.69;115554;1203;24676;-55
2021/03/26 09:51:48;;;;;;;59.50;27.90;;;;;;;12.17;69.35;100794.06;114753;1203;26087;-57
2021/03/26 09:54:22;;;;;;;55.90;27.40;;;;;;;12.30;69.46;100793.05;116528;1203;25988;-57
2021/03/26 09:57:06;;;;;;;55.20;26.10;;;;;;;12.42;69.08;100795.59;114894;1203;23134;-58
2021/03/26 09:59:44;;;;;;;58.50;25.70;;;;;;;12.55;68.93;100789.74;115226;1202;25328;-58
2021/03/26 10:02:27;;;;;;;54.55;26.15;;;;;;;12.72;68.59;100788.05;114970;1200;26045;-57
2021/03/26 10:05:07;;;;;;;54.40;27.15;;;;;;;12.87;68.55;100783.21;115143;1199;23121;-56
2021/03/26 10:07:45;;;;;;;51.33;25.03;;;;;;;12.98;68.23;100784.20;115291;1202;23259;-58
2021/03/26 10:13:12;;;;;;;49.17;24.17;;;;;;;13.12;67.24;100777.07;115314;1199;23173;-58
2021/03/26 10:15:45;;;;;;;47.43;24.47;;;;;;;13.24;66.28;100775.99;115307;1199;23360;-59
2021/03/26 10:18:20;;;;;;;54.37;26.03;;;;;;;13.39;65.59;100773.95;115282;1200;26041;-57
2021/03/26 10:20:54;;;;;;;52.25;26.30;;;;;;;13.49;65.98;100777.44;115255;1198;23112;-56
2021/03/26 10:23:35;;;;;;;55.70;25.83;;;;;;;13.56;65.85;100772.19;115876;1198;23075;-56
2021/03/26 10:26:13;;;;;;;49.03;26.47;;;;;;;13.55;65.64;100767.08;115571;1199;24875;-55
2021/03/26 10:29:28;;;;;;;51.75;26.30;;;;;;;13.62;64.90;100770.24;115519;1200;27365;-58
2021/03/26 10:32:09;;;;;;;51.00;24.40;;;;;;;13.76;64.91;100766.63;115049;1200;26385;-58
2021/03/26 10:34:41;;;;;;;51.75;25.70;;;;;;;13.83;64.31;100776.67;115255;1203;23205;-57
2021/03/26 10:37:36;;;;;;;52.20;27.20;;;;;;;13.94;64.45;100762.02;115042;1200;27780;-57
2021/03/26 10:40:13;;;;;;;55.00;25.90;;;;;;;14.05;64.01;100756.56;115478;1203;23416;-56
2021/03/26 10:42:53;;;;;;;49.60;24.20;;;;;;;14.11;63.11;100755.34;115086;1204;23213;-56
2021/03/26 10:45:49;;;;;;;49.75;25.65;;;;;;;14.16;63.76;100754.66;114999;1200;23352;-59
2021/03/26 10:48:26;;;;;;;50.80;26.80;;;;;;;14.21;62.36;100751.16;115288;1203;23185;-58
2021/03/26 10:51:21;;;;;;;51.20;27.80;;;;;;;14.21;62.92;100753.97;114628;1200;23120;-58
2021/03/26 10:53:54;;;;;;;51.80;28.00;;;;;;;14.23;63.35;100751.44;114405;1203;23377;-58
2021/03/26 10:56:54;;;;;;;55.40;28.90;;;;;;;14.26;62.98;100741.23;114522;1206;23192;-58
2021/03/26 10:59:31;;;;;;;56.53;26.75;;;;;;;14.27;62.85;100751.22;114344;1203;23186;-58
2021/03/26 11:02:46;;;;;;;50.80;24.43;;;;;;;14.27;61.82;100726.73;114379;1205;24803;-57
2021/03/26 11:06:03;;;;;;;48.35;24.80;;;;;;;14.32;62.08;100740.08;114608;1203;23138;-57
2021/03/26 11:08:48;;;;;;;46.47;24.40;;;;;;;14.41;61.93;100733.54;115205;1201;23125;-58
2021/03/26 11:11:31;;;;;;;50.17;24.93;;;;;;;14.47;62.14;100723.13;118312;1202;23650;-58
2021/03/26 11:14:40;;;;;;;51.10;25.10;;;;;;;14.55;61.31;100721.42;118376;1204;22957;-58
2021/03/26 11:17:39;;;;;;;55.30;25.80;;;;;;;14.66;60.79;100713.13;117078;1205;23135;-59
2021/03/26 11:20:29;;;;;;;48.05;24.70;;;;;;;14.77;60.59;100710.43;115097;1205;24794;-59
2021/03/26 11:23:08;;;;;;;44.80;24.23;;;;;;;14.79;60.18;100710.70;114849;1200;23132;-60
2021/03/26 11:25:40;;;;;;;46.00;23.70;;;;;;;14.84;59.84;100712.00;114869;1205;23127;-59
2021/03/26 11:28:19;;;;;;;47.40;24.00;;;;;;;14.90;59.40;100707.20;115295;1204;26293;-59
2021/03/26 11:31:06;;;;;;;44.85;23.18;;;;;;;14.96;58.92;100710.85;115137;1202;26223;-59
2021/03/26 11:33:54;;;;;;;48.37;24.17;;;;;;;15.00;59.11;100708.59;115251;1199;26079;-58
2021/03/26 11:36:39;;;;;;;48.60;23.45;;;;;;;15.03;59.03;100710.39;114991;1200;23101;-60
2021/03/26 11:39:21;;;;;;;45.85;25.10;;;;;;;15.04;58.99;100703.51;115486;1200;23102;-60
2021/03/26 11:41:58;;;;;;;48.63;25.67;;;;;;;15.04;59.02;100704.25;115675;1202;23090;-59
2021/03/26 11:44:31;;;;;;;48.80;25.23;;;;;;;15.07;58.71;100703.27;115276;1198;24736;-57
2021/03/26 11:47:04;;;;;;;51.45;27.60;;;;;;;15.09;58.68;100695.11;115638;1200;27483;-57
2021/03/26 11:49:39;;;;;;;49.50;25.20;;;;;;;15.16;58.93;100691.84;114959;1201;23111;-57
2021/03/26 11:52:13;;;;;;;47.80;24.90;;;;;;;15.19;58.31;100690.05;115647;1200;23106;-60
2021/03/26 11:54:45;;;;;;;46.80;22.43;;;;;;;15.28;58.22;100689.88;115038;1202;26959;-60
2021/03/26 11:57:24;;;;;;;44.67;22.97;;;;;;;15.37;57.16;100686.88;115211;1202;23111;-61
2021/03/26 12:00:13;;;;;;;44.67;22.73;;;;;;;15.38;57.76;100677.93;114864;1199;28406;-60
2021/03/26 12:02:52;;;;;;;52.80;22.20;;;;;;;15.45;57.48;100681.58;115022;1199;23107;-61
2021/03/26 12:05:37;;;;;;;55.85;28.45;;;;;;;15.51;57.51;100676.75;115546;1199;23100;-61
2021/03/26 12:08:13;;;;;;;44.20;23.25;;;;;;;15.56;57.16;100673.21;115419;1202;23273;-61
2021/03/26 12:10:45;;;;;;;41.20;20.83;;;;;;;15.61;56.52;100659.16;115198;1202;23098;-62
2021/03/26 12:13:22;;;;;;;38.70;18.60;;;;;;;15.66;56.54;100664.06;118573;1199;22835;-62
2021/03/26 12:15:59;;;;;;;38.30;18.40;;;;;;;15.71;55.91;100654.86;115193;1200;24591;-62
2021/03/26 12:18:36;;;;;;;46.00;19.60;;;;;;;15.81;55.57;100652.59;116283;1199;27413;-62
2021/03/26 12:21:18;;;;;;;32.83;16.43;;;;;;;15.87;55.38;100648.52;115584;1202;23106;-62
2021/03/26 12:23:58;;;;;;;36.75;17.90;;;;;;;15.94;54.89;100655.72;115213;1201;23261;-64
2021/03/26 12:26:33;;;;;;;37.43;18.43;;;;;;;16.03;54.35;100647.06;115462;1200;23122;-62
2021/03/26 12:29:19;;;;;;;44.30;20.75;;;;;;;16.07;54.86;100653.22;115239;1200;23109;-62